Terminal Aerodrome Forecast
Issued by NWS Mt. Holly, NJ

Current Version | Previous Version | Text Only | Print | Product List | Glossary On
Versions: 1 2 3 4 5 6 7 8 9 10 11 12 13 14 15 16 17 18 19 20 21 22 23 24 25 26 27 28
000
FTUS41 KPHI 110817 AAA
TAFPHL
TAF AMD
KPHL 110817Z 1108/1212 VRB03KT P6SM BKN050
      TEMPO 1108/1110 5SM -SN BKN030
     FM111300 27009KT P6SM SCT070 SCT250
     FM112200 21005KT P6SM BKN250
     FM120100 17005KT P6SM BKN100=

USA.gov is the U.S. government's official web portal to all federal, state and local government web resources and services.